Time;durP1;ratioP1;P1;durP2;ratioP2;P2;SDS_P1;SDS_P2;PMS_P1;PMS_P2;Temp;Humidity;BMP_temperature;BMP_pressure;BME280_temperature;BME280_humidity;BME280_pressure;Samples;Min_cycle;Max_cycle;Signal;HPM_P1;HPM_P2
2023/03/30 00:00:49;;;;;;;0.10;0.10;;;17.60;63.40;;;;;;5103521;28;20024;-74
2023/03/30 00:03:18;;;;;;;0.10;0.10;;;17.40;64.60;;;;;;5096483;28;20057;-72
2023/03/30 00:05:46;;;;;;;0.30;0.30;;;17.60;62.80;;;;;;5098479;28;20024;-73
2023/03/30 00:08:17;;;;;;;0.13;0.13;;;17.50;63.20;;;;;;5102004;28;20042;-72
2023/03/30 00:10:43;;;;;;;0.88;0.85;;;17.50;63.00;;;;;;5097339;28;20167;-72
2023/03/30 00:13:10;;;;;;;2.90;1.27;;;17.30;63.30;;;;;;5098476;28;20410;-72
2023/03/30 00:15:36;;;;;;;0.85;0.55;;;17.30;63.10;;;;;;5104958;28;20047;-73
2023/03/30 00:18:02;;;;;;;0.10;0.10;;;17.40;62.30;;;;;;5098354;28;20059;-72
2023/03/30 00:20:31;;;;;;;0.15;0.15;;;17.50;62.10;;;;;;5105013;28;20028;-72
2023/03/30 00:22:57;;;;;;;0.00;0.00;;;17.50;61.60;;;;;;5096921;28;20388;-72
2023/03/30 00:25:23;;;;;;;0.68;0.68;;;17.50;61.50;;;;;;5099783;28;20027;-72
2023/03/30 00:27:49;;;;;;;0.20;0.20;;;17.50;61.20;;;;;;5102131;28;20104;-72
2023/03/30 00:30:16;;;;;;;1.50;0.83;;;17.50;60.80;;;;;;5088634;28;20112;-73
2023/03/30 00:32:43;;;;;;;1.02;0.65;;;17.60;60.50;;;;;;5098463;28;20065;-72
2023/03/30 00:35:09;;;;;;;;;;;17.60;60.60;;;;;;5101067;28;20034;-73
2023/03/30 00:37:36;;;;;;;0.20;0.20;;;17.70;59.60;;;;;;5097378;28;19911;-73
2023/03/30 00:40:06;;;;;;;0.10;0.10;;;17.70;59.60;;;;;;5099176;28;20032;-73
2023/03/30 00:42:35;;;;;;;1.20;0.95;;;17.70;59.30;;;;;;5101989;28;20128;-73
2023/03/30 00:45:22;;;;;;;0.00;0.00;;;17.50;60.00;;;;;;5103596;28;20051;-73
2023/03/30 00:47:53;;;;;;;17.63;1.63;;;17.10;65.20;;;;;;5092406;28;20039;-73
2023/03/30 00:50:22;;;;;;;6.45;1.77;;;16.60;69.50;;;;;;5103027;28;20524;-72
2023/03/30 00:52:51;;;;;;;11.32;1.75;;;16.70;70.30;;;;;;5097693;28;20035;-72
2023/03/30 00:55:19;;;;;;;0.28;0.28;;;16.30;72.50;;;;;;5074113;28;20082;-73
2023/03/30 00:57:47;;;;;;;0.20;0.20;;;16.20;73.90;;;;;;5105140;28;20081;-72
2023/03/30 01:00:13;;;;;;;6.32;1.80;;;16.10;75.80;;;;;;5094417;28;20055;-73
2023/03/30 01:02:51;;;;;;;0.20;0.20;;;16.00;76.60;;;;;;5096880;28;20083;-72
2023/03/30 01:05:17;;;;;;;0.10;0.10;;;16.10;76.60;;;;;;5101092;28;20036;-72
2023/03/30 01:07:48;;;;;;;1.03;0.60;;;16.00;78.10;;;;;;5101620;28;20452;-73
2023/03/30 01:10:15;;;;;;;0.20;0.20;;;16.00;78.80;;;;;;5104856;28;20026;-72
2023/03/30 01:12:41;;;;;;;0.52;0.43;;;16.10;79.00;;;;;;5104419;28;20493;-72
2023/03/30 01:15:08;;;;;;;0.10;0.10;;;16.10;79.30;;;;;;5099878;28;20551;-73
2023/03/30 01:17:52;;;;;;;0.50;0.50;;;16.00;80.20;;;;;;5103592;28;20337;-72
2023/03/30 01:20:37;;;;;;;0.17;0.17;;;16.00;81.90;;;;;;5099066;28;20032;-72
2023/03/30 01:23:36;;;;;;;0.30;0.30;;;16.00;83.10;;;;;;5081706;28;20043;-73
2023/03/30 01:26:40;;;;;;;0.20;0.20;;;16.00;83.90;;;;;;5096934;28;20050;-72
2023/03/30 01:29:30;;;;;;;0.63;0.47;;;15.90;85.20;;;;;;5103214;28;20020;-73
2023/03/30 01:32:00;;;;;;;0.95;0.80;;;15.90;86.70;;;;;;5093067;28;20859;-72
2023/03/30 01:34:57;;;;;;;0.10;0.10;;;15.90;87.00;;;;;;5092954;28;20048;-72
2023/03/30 01:37:41;;;;;;;0.25;0.25;;;15.70;88.00;;;;;;5072215;28;20642;-72
2023/03/30 01:40:39;;;;;;;0.88;0.80;;;15.70;88.10;;;;;;5097194;28;20776;-72
2023/03/30 01:43:16;;;;;;;1.67;1.58;;;15.60;88.80;;;;;;5087957;28;20036;-72
2023/03/30 01:46:05;;;;;;;0.10;0.10;;;15.50;89.90;;;;;;5097038;28;20032;-72
2023/03/30 01:48:45;;;;;;;2.00;0.60;;;15.50;89.60;;;;;;5085583;28;20269;-73
2023/03/30 01:51:36;;;;;;;0.10;0.10;;;15.50;89.50;;;;;;5087827;28;20126;-72
2023/03/30 01:54:11;;;;;;;5.57;1.30;;;15.50;89.80;;;;;;5091663;28;20023;-72
2023/03/30 01:56:49;;;;;;;0.10;0.10;;;15.50;89.20;;;;;;5089851;28;20111;-73
2023/03/30 01:59:24;;;;;;;0.10;0.10;;;15.50;90.00;;;;;;5094042;28;20414;-73
2023/03/30 02:01:59;;;;;;;0.30;0.30;;;15.40;90.10;;;;;;5076806;28;20060;-73
2023/03/30 02:04:26;;;;;;;3.30;0.63;;;15.30;90.50;;;;;;5092205;28;20118;-74
2023/03/30 02:06:57;;;;;;;0.43;0.43;;;15.20;90.80;;;;;;5092212;28;20023;-72
2023/03/30 02:09:25;;;;;;;3.22;1.33;;;15.20;90.70;;;;;;5092230;28;20031;-72
2023/03/30 02:11:52;;;;;;;0.25;0.25;;;15.20;90.40;;;;;;5094391;28;20024;-72
2023/03/30 02:14:23;;;;;;;1.10;0.60;;;15.10;90.60;;;;;;5089270;28;20024;-72
2023/03/30 02:16:54;;;;;;;0.52;0.52;;;15.20;90.30;;;;;;5094181;28;20031;-73
2023/03/30 02:19:20;;;;;;;0.32;0.32;;;15.30;90.10;;;;;;5090119;28;20024;-72
2023/03/30 02:21:46;;;;;;;0.20;0.20;;;15.30;90.40;;;;;;5091779;28;20036;-73
2023/03/30 02:24:21;;;;;;;1.95;1.40;;;15.30;90.30;;;;;;5087562;28;20098;-72
2023/03/30 02:26:50;;;;;;;0.28;0.28;;;15.30;90.20;;;;;;5094630;28;20032;-72
2023/03/30 02:29:17;;;;;;;0.40;0.40;;;15.20;90.50;;;;;;5089846;28;20534;-73
2023/03/30 02:31:45;;;;;;;1.88;0.98;;;15.20;90.70;;;;;;5091114;28;20031;-71
2023/03/30 02:34:31;;;;;;;0.63;0.63;;;15.10;90.80;;;;;;5075745;28;20045;-73
2023/03/30 02:37:14;;;;;;;0.73;0.73;;;15.10;91.00;;;;;;5073248;28;20107;-72
2023/03/30 02:39:46;;;;;;;0.32;0.32;;;15.00;91.40;;;;;;5078091;28;20024;-72
2023/03/30 02:42:21;;;;;;;0.10;0.10;;;15.00;91.40;;;;;;5080044;28;20035;-72
2023/03/30 02:45:20;;;;;;;0.32;0.32;;;15.00;91.50;;;;;;5066344;28;20028;-72
2023/03/30 02:48:35;;;;;;;0.10;0.10;;;14.90;91.70;;;;;;5077467;28;20028;-73
2023/03/30 02:51:27;;;;;;;0.43;0.37;;;14.80;92.00;;;;;;5068389;28;20150;-73
2023/03/30 02:54:00;;;;;;;0.30;0.30;;;14.80;91.70;;;;;;5081698;28;20274;-72
2023/03/30 02:56:38;;;;;;;0.60;0.60;;;14.80;91.60;;;;;;5082064;28;20086;-73
2023/03/30 02:59:50;;;;;;;0.20;0.20;;;14.70;91.70;;;;;;5074683;28;20042;-73
2023/03/30 03:02:32;;;;;;;0.55;0.55;;;14.60;91.70;;;;;;5080100;28;20525;-72
2023/03/30 03:05:02;;;;;;;0.75;0.75;;;14.50;91.90;;;;;;5082466;28;20020;-73
2023/03/30 03:07:32;;;;;;;0.47;0.47;;;14.50;92.20;;;;;;5079904;28;20035;-72
2023/03/30 03:09:58;;;;;;;0.10;0.10;;;14.50;92.30;;;;;;5082618;28;20743;-73
2023/03/30 03:12:25;;;;;;;0.63;0.63;;;14.40;92.60;;;;;;5077691;28;20036;-72
2023/03/30 03:14:51;;;;;;;0.32;0.32;;;14.30;93.10;;;;;;5082129;28;20024;-73
2023/03/30 03:17:21;;;;;;;0.43;0.43;;;14.20;92.90;;;;;;5075663;28;20601;-73
2023/03/30 03:19:47;;;;;;;4.30;0.80;;;14.20;93.10;;;;;;5081850;28;20020;-73
2023/03/30 03:22:13;;;;;;;0.25;0.25;;;14.10;93.50;;;;;;5081298;28;21292;-72
2023/03/30 03:24:39;;;;;;;24.77;1.13;;;14.10;93.60;;;;;;5081138;28;20066;-73
2023/03/30 03:27:06;;;;;;;3.13;1.20;;;14.10;93.80;;;;;;5085112;28;20020;-72
2023/03/30 03:29:31;;;;;;;3.20;1.83;;;14.10;93.80;;;;;;5088334;28;20261;-73
2023/03/30 03:31:58;;;;;;;0.50;0.50;;;14.10;93.80;;;;;;5084108;28;20036;-73
2023/03/30 03:34:30;;;;;;;1.17;0.63;;;14.10;93.80;;;;;;5101271;28;20055;-73
2023/03/30 03:36:56;;;;;;;0.35;0.35;;;14.10;93.90;;;;;;5104723;28;20027;-72
2023/03/30 03:39:22;;;;;;;2.95;1.15;;;14.00;94.20;;;;;;5100369;28;20058;-73
2023/03/30 03:41:48;;;;;;;0.13;0.13;;;13.90;94.20;;;;;;5095639;28;21728;-72
2023/03/30 03:44:14;;;;;;;1.47;0.97;;;13.80;94.70;;;;;;5102785;28;20058;-73
2023/03/30 03:46:40;;;;;;;1.07;0.97;;;13.70;94.90;;;;;;5100346;28;20028;-73
2023/03/30 03:49:06;;;;;;;0.20;0.20;;;13.70;94.90;;;;;;5108218;28;20023;-73
2023/03/30 03:51:32;;;;;;;0.10;0.10;;;13.70;95.20;;;;;;5103420;27;20031;-73
2023/03/30 03:53:59;;;;;;;2.92;1.75;;;13.60;95.30;;;;;;5104092;28;20028;-73
2023/03/30 03:56:25;;;;;;;;;;;13.60;95.60;;;;;;5084450;28;20042;-73
2023/03/30 03:58:51;;;;;;;7.07;0.55;;;13.50;95.80;;;;;;5107293;27;20390;-73
2023/03/30 04:01:17;;;;;;;0.40;0.40;;;13.50;96.20;;;;;;5107368;28;20027;-74
2023/03/30 04:03:43;;;;;;;3.50;1.10;;;13.50;96.30;;;;;;5105806;28;20040;-73
2023/03/30 04:06:09;;;;;;;0.30;0.30;;;13.40;96.60;;;;;;5104646;27;20084;-74
2023/03/30 04:08:35;;;;;;;0.60;0.60;;;13.40;96.70;;;;;;5098907;27;20031;-73
2023/03/30 04:11:10;;;;;;;0.20;0.20;;;13.30;97.00;;;;;;5102098;28;20111;-73
2023/03/30 04:13:37;;;;;;;0.15;0.15;;;13.30;97.20;;;;;;5094343;28;20090;-72
2023/03/30 04:16:04;;;;;;;6.13;1.88;;;13.30;97.40;;;;;;5106720;28;20051;-72
2023/03/30 04:18:32;;;;;;;0.30;0.30;;;13.20;97.60;;;;;;5099111;28;20028;-73
2023/03/30 04:21:03;;;;;;;0.40;0.40;;;13.20;97.60;;;;;;5101565;28;20096;-73
2023/03/30 04:23:32;;;;;;;1.13;0.70;;;13.20;97.70;;;;;;5106637;28;20099;-73
2023/03/30 04:26:01;;;;;;;0.22;0.22;;;13.20;97.90;;;;;;5104000;28;20602;-75
2023/03/30 04:28:28;;;;;;;1.77;0.85;;;13.20;98.10;;;;;;5097347;28;20024;-73
2023/03/30 04:31:12;;;;;;;0.90;0.90;;;13.10;98.30;;;;;;5102173;28;20031;-72
2023/03/30 04:33:49;;;;;;;0.73;0.73;;;13.00;98.40;;;;;;5101114;28;20346;-72
2023/03/30 04:36:16;;;;;;;2.60;1.38;;;13.00;98.70;;;;;;5102983;28;20059;-72
2023/03/30 04:38:56;;;;;;;0.10;0.10;;;13.00;99.00;;;;;;5096009;28;20767;-73
2023/03/30 04:41:25;;;;;;;0.10;0.10;;;13.00;98.90;;;;;;5103045;28;20031;-73
2023/03/30 04:43:51;;;;;;;0.93;0.75;;;13.00;99.00;;;;;;5098633;28;20027;-73
2023/03/30 04:46:16;;;;;;;0.20;0.20;;;12.90;99.30;;;;;;5077583;28;20039;-73
2023/03/30 04:48:42;;;;;;;0.35;0.35;;;12.90;99.50;;;;;;5104702;28;20081;-72
2023/03/30 04:51:08;;;;;;;0.75;0.63;;;12.80;99.80;;;;;;5103319;28;20024;-72
2023/03/30 04:53:33;;;;;;;0.10;0.10;;;12.70;99.90;;;;;;5093034;28;20054;-73
2023/03/30 04:55:59;;;;;;;0.20;0.20;;;12.70;99.90;;;;;;5092439;28;20100;-73
2023/03/30 04:58:25;;;;;;;0.98;0.98;;;12.70;99.90;;;;;;5096438;28;20115;-72
2023/03/30 05:00:50;;;;;;;1.60;0.63;;;12.60;99.90;;;;;;5099252;28;20643;-72
2023/03/30 05:03:16;;;;;;;0.75;0.75;;;12.70;99.90;;;;;;5089367;28;20703;-72
2023/03/30 05:05:42;;;;;;;0.43;0.43;;;12.70;99.90;;;;;;5096525;28;20791;-72
2023/03/30 05:08:08;;;;;;;0.47;0.47;;;12.70;99.90;;;;;;5091120;28;20085;-73
2023/03/30 05:10:34;;;;;;;3.95;2.35;;;12.60;99.90;;;;;;5086545;28;20098;-72
2023/03/30 05:12:59;;;;;;;16.43;6.73;;;12.60;99.90;;;;;;5089551;28;20102;-72
2023/03/30 05:15:26;;;;;;;8.13;3.40;;;12.50;99.90;;;;;;5092124;28;20032;-73
2023/03/30 05:17:52;;;;;;;0.77;0.60;;;12.60;99.90;;;;;;5089336;28;20020;-73
2023/03/30 05:20:17;;;;;;;1.00;0.98;;;12.50;99.90;;;;;;5087247;28;20544;-73
2023/03/30 05:22:44;;;;;;;1.98;1.88;;;12.40;99.90;;;;;;5076658;28;20032;-73
2023/03/30 05:25:09;;;;;;;0.90;0.90;;;12.60;99.90;;;;;;5090834;28;20414;-73
2023/03/30 05:27:35;;;;;;;0.20;0.20;;;12.50;99.90;;;;;;5098655;28;20036;-73
2023/03/30 05:30:01;;;;;;;1.05;1.02;;;12.40;99.90;;;;;;5099744;28;20111;-73
2023/03/30 05:32:27;;;;;;;0.75;0.75;;;12.50;99.90;;;;;;5095569;28;20050;-72
2023/03/30 05:34:52;;;;;;;2.10;1.10;;;12.40;99.90;;;;;;5079845;28;20083;-73
2023/03/30 05:37:18;;;;;;;0.37;0.37;;;12.50;99.90;;;;;;5078879;28;20585;-73
2023/03/30 05:39:44;;;;;;;0.70;0.70;;;12.60;99.90;;;;;;5079310;28;20287;-73
2023/03/30 05:42:10;;;;;;;1.63;0.90;;;12.50;99.90;;;;;;5075509;28;20480;-74
2023/03/30 05:44:36;;;;;;;1.58;1.48;;;12.50;99.90;;;;;;5064161;28;20113;-74
2023/03/30 05:47:02;;;;;;;2.67;2.47;;;12.60;99.90;;;;;;5081317;28;20540;-74
2023/03/30 05:49:27;;;;;;;1.20;1.17;;;12.70;99.90;;;;;;5083412;28;20028;-74
2023/03/30 05:51:53;;;;;;;1.57;0.87;;;12.80;99.90;;;;;;5081449;28;20063;-74
2023/03/30 05:54:19;;;;;;;0.30;0.30;;;12.90;99.90;;;;;;5082167;28;20839;-74
2023/03/30 05:56:44;;;;;;;0.17;0.17;;;13.00;99.90;;;;;;5081445;28;20032;-74
2023/03/30 05:59:11;;;;;;;0.10;0.10;;;13.00;99.90;;;;;;5083485;28;20132;-74
2023/03/30 06:01:37;;;;;;;;;;;13.10;99.90;;;;;;5081405;28;20028;-74
2023/03/30 06:04:03;;;;;;;0.10;0.10;;;13.10;99.90;;;;;;5084169;28;19916;-74
2023/03/30 06:06:29;;;;;;;0.47;0.47;;;13.20;99.90;;;;;;5083552;28;20129;-74
2023/03/30 06:08:54;;;;;;;1.23;1.23;;;13.30;99.90;;;;;;5083104;28;20043;-75
2023/03/30 06:11:20;;;;;;;0.57;0.57;;;13.40;99.60;;;;;;5081043;28;20035;-74
2023/03/30 06:13:46;;;;;;;0.10;0.10;;;13.50;99.50;;;;;;5081538;28;20073;-74
2023/03/30 06:16:12;;;;;;;0.30;0.30;;;13.50;99.20;;;;;;5083350;28;20035;-74
2023/03/30 06:18:38;;;;;;;0.82;0.57;;;13.90;98.30;;;;;;5082651;28;20040;-74
2023/03/30 06:21:08;;;;;;;0.63;0.63;;;13.90;98.10;;;;;;5080097;28;20028;-75
2023/03/30 06:23:35;;;;;;;0.90;0.88;;;13.50;99.00;;;;;;5080751;28;20111;-74
2023/03/30 06:26:02;;;;;;;0.65;0.65;;;13.40;99.60;;;;;;5082240;28;20024;-74
2023/03/30 06:28:27;;;;;;;0.60;0.60;;;13.60;99.40;;;;;;5083297;28;20016;-71
2023/03/30 06:30:53;;;;;;;0.47;0.47;;;14.30;97.40;;;;;;5082614;28;20031;-72
2023/03/30 06:33:19;;;;;;;1.80;1.10;;;14.50;96.90;;;;;;5090308;28;20048;-72
2023/03/30 06:35:47;;;;;;;0.23;0.23;;;14.80;96.20;;;;;;5103005;28;20030;-75
2023/03/30 06:38:13;;;;;;;1.15;0.57;;;14.60;96.30;;;;;;5098538;28;20032;-72
2023/03/30 06:40:39;;;;;;;0.05;0.05;;;14.10;97.10;;;;;;5101784;28;20028;-73
2023/03/30 06:43:06;;;;;;;0.27;0.27;;;14.00;97.60;;;;;;5097791;28;20035;-74
2023/03/30 06:45:32;;;;;;;;;;;14.00;97.70;;;;;;5102632;28;20034;-74
2023/03/30 06:47:58;;;;;;;0.60;0.60;;;14.20;97.40;;;;;;5096795;28;19947;-73
2023/03/30 06:50:23;;;;;;;2.23;1.13;;;14.50;96.60;;;;;;5096171;28;20102;-75
2023/03/30 06:52:49;;;;;;;0.00;0.00;;;14.50;96.60;;;;;;5100447;28;20038;-73
2023/03/30 06:55:15;;;;;;;0.32;0.20;;;14.60;96.30;;;;;;5101953;28;20038;-75
2023/03/30 06:57:40;;;;;;;4.40;0.88;;;14.50;96.40;;;;;;5102841;28;20130;-73
2023/03/30 07:00:14;;;;;;;0.53;0.53;;;15.00;96.60;;;;;;5094255;28;20051;-73
2023/03/30 07:02:43;;;;;;;1.08;0.52;;;15.20;95.60;;;;;;5094153;28;20512;-73
2023/03/30 07:05:09;;;;;;;1.05;1.02;;;16.10;94.40;;;;;;5092582;28;20027;-75
2023/03/30 07:07:35;;;;;;;6.15;1.27;;;15.60;94.60;;;;;;5097006;28;20055;-74
2023/03/30 07:10:08;;;;;;;1.85;1.20;;;14.90;96.00;;;;;;5090564;28;20108;-74
2023/03/30 07:12:35;;;;;;;0.50;0.50;;;14.50;97.00;;;;;;5084838;28;20032;-73
2023/03/30 07:15:00;;;;;;;14.52;1.25;;;14.40;97.60;;;;;;5097840;28;20039;-73
2023/03/30 07:17:26;;;;;;;1.93;0.97;;;14.40;97.80;;;;;;5084117;28;20036;-75
2023/03/30 07:19:53;;;;;;;14.40;1.67;;;14.40;97.60;;;;;;5097239;28;20475;-73
2023/03/30 07:22:18;;;;;;;0.37;0.37;;;14.30;97.70;;;;;;5086992;28;20488;-75
2023/03/30 07:24:44;;;;;;;0.30;0.30;;;14.40;97.30;;;;;;5093166;28;20043;-73
2023/03/30 07:27:10;;;;;;;0.10;0.10;;;14.50;97.20;;;;;;5101540;28;20034;-73
2023/03/30 07:29:35;;;;;;;0.57;0.57;;;14.70;97.00;;;;;;5100803;28;20511;-73
2023/03/30 07:32:02;;;;;;;0.27;0.27;;;14.70;96.60;;;;;;5101725;28;20964;-72
2023/03/30 07:34:28;;;;;;;0.68;0.43;;;14.80;96.60;;;;;;5102501;28;20530;-73
2023/03/30 07:36:54;;;;;;;0.10;0.10;;;14.90;96.50;;;;;;5098547;28;20023;-74
2023/03/30 07:39:20;;;;;;;1.43;1.37;;;15.00;96.30;;;;;;5097888;28;20020;-73
2023/03/30 07:41:45;;;;;;;0.23;0.23;;;15.00;96.10;;;;;;5097217;28;20024;-73
2023/03/30 07:44:11;;;;;;;0.27;0.27;;;14.70;96.50;;;;;;5102614;28;20134;-74
2023/03/30 07:46:36;;;;;;;0.67;0.67;;;14.50;97.20;;;;;;5096961;28;20057;-74
2023/03/30 07:49:02;;;;;;;0.10;0.10;;;14.60;97.10;;;;;;5096455;28;20028;-73
2023/03/30 07:51:28;;;;;;;0.93;0.93;;;14.80;96.60;;;;;;5083402;28;20323;-74
2023/03/30 07:53:53;;;;;;;1.80;1.23;;;14.90;96.30;;;;;;5102088;28;20490;-75
2023/03/30 07:56:19;;;;;;;0.97;0.70;;;14.90;96.50;;;;;;5094442;28;20036;-73
2023/03/30 07:58:45;;;;;;;0.43;0.43;;;14.90;96.20;;;;;;5101994;28;20126;-73
2023/03/30 08:01:12;;;;;;;0.10;0.10;;;14.90;95.90;;;;;;5077690;28;20484;-74
2023/03/30 08:03:37;;;;;;;8.05;0.90;;;14.80;96.10;;;;;;5100119;28;20067;-72
2023/03/30 08:06:05;;;;;;;0.30;0.30;;;14.80;96.30;;;;;;5093182;28;20118;-73
2023/03/30 08:08:32;;;;;;;2.38;1.15;;;15.00;96.10;;;;;;5095551;28;20729;-73
2023/03/30 08:10:58;;;;;;;0.22;0.22;;;15.00;96.10;;;;;;5092485;28;20020;-72
2023/03/30 08:13:24;;;;;;;0.73;0.73;;;15.10;95.80;;;;;;5094159;28;20112;-75
2023/03/30 08:15:51;;;;;;;0.38;0.38;;;14.90;96.00;;;;;;5105862;28;20031;-73
2023/03/30 08:18:17;;;;;;;0.20;0.20;;;14.90;96.20;;;;;;5105058;28;20088;-72
2023/03/30 08:20:43;;;;;;;0.10;0.10;;;14.80;96.40;;;;;;5094337;28;20575;-72
2023/03/30 08:23:09;;;;;;;0.93;0.80;;;14.60;97.00;;;;;;5104915;28;20254;-75
2023/03/30 08:25:36;;;;;;;0.15;0.15;;;14.40;97.80;;;;;;5104544;28;20036;-73
2023/03/30 08:28:03;;;;;;;2.33;1.70;;;14.30;98.60;;;;;;5104637;28;20036;-73
2023/03/30 08:30:28;;;;;;;;;;;14.30;98.20;;;;;;5104427;28;20015;-75
2023/03/30 08:32:54;;;;;;;0.40;0.40;;;14.20;98.60;;;;;;5103656;28;19920;-73
2023/03/30 08:35:20;;;;;;;4.90;0.77;;;14.20;98.80;;;;;;5102268;28;20031;-74
2023/03/30 08:37:46;;;;;;;0.45;0.40;;;14.20;98.90;;;;;;5105615;28;20020;-73
2023/03/30 08:40:14;;;;;;;0.40;0.40;;;14.30;98.80;;;;;;5104695;28;20024;-75
2023/03/30 08:43:21;;;;;;;0.60;0.40;;;14.30;99.10;;;;;;5101359;28;20051;-74
2023/03/30 08:45:47;;;;;;;0.98;0.80;;;14.40;98.90;;;;;;5097626;28;20042;-73
2023/03/30 08:48:19;;;;;;;0.30;0.30;;;14.50;99.00;;;;;;5100155;28;20027;-73
2023/03/30 08:51:01;;;;;;;0.22;0.22;;;14.70;98.60;;;;;;5079314;28;20036;-73
2023/03/30 08:53:29;;;;;;;1.02;0.55;;;15.10;98.10;;;;;;5100694;28;20573;-73
2023/03/30 08:56:04;;;;;;;0.98;0.70;;;15.10;97.70;;;;;;5095384;28;21436;-73
2023/03/30 08:58:48;;;;;;;1.17;1.00;;;15.40;97.10;;;;;;5100497;28;20059;-73
2023/03/30 09:01:27;;;;;;;0.73;0.73;;;15.40;96.80;;;;;;5104605;28;20024;-73
2023/03/30 09:04:01;;;;;;;0.20;0.20;;;15.50;97.00;;;;;;5095805;28;20089;-73
2023/03/30 09:06:43;;;;;;;0.20;0.20;;;15.90;97.10;;;;;;5095258;28;20111;-74
2023/03/30 09:09:17;;;;;;;0.40;0.40;;;15.90;97.40;;;;;;5095717;28;20051;-75
2023/03/30 09:11:43;;;;;;;5.93;1.25;;;17.10;95.70;;;;;;5093293;28;20024;-73
2023/03/30 09:14:40;;;;;;;0.73;0.73;;;18.50;92.60;;;;;;5104414;28;20031;-73
2023/03/30 09:17:20;;;;;;;0.20;0.20;;;17.90;92.70;;;;;;5084019;28;20496;-73
2023/03/30 09:20:08;;;;;;;0.40;0.40;;;18.90;92.50;;;;;;5099035;28;20020;-73
2023/03/30 09:22:44;;;;;;;2.00;0.85;;;19.80;91.10;;;;;;5102120;28;20031;-74
2023/03/30 09:25:20;;;;;;;0.30;0.30;;;20.70;91.10;;;;;;5101805;28;20034;-74
2023/03/30 09:28:03;;;;;;;2.10;0.52;;;20.20;88.50;;;;;;5104310;28;20030;-73
2023/03/30 09:30:54;;;;;;;0.10;0.10;;;19.90;91.70;;;;;;5102661;28;20023;-73
2023/03/30 09:33:34;;;;;;;0.65;0.65;;;20.80;86.70;;;;;;5053861;28;20058;-73
2023/03/30 09:36:24;;;;;;;0.00;0.00;;;20.40;89.50;;;;;;5104344;28;20122;-74
2023/03/30 09:38:50;;;;;;;0.28;0.28;;;20.60;86.30;;;;;;5103342;28;20053;-75
2023/03/30 09:41:43;;;;;;;2.08;1.02;;;20.40;84.80;;;;;;5095497;28;20720;-73
2023/03/30 09:44:28;;;;;;;0.00;0.00;;;19.50;86.00;;;;;;5048469;28;20050;-74
2023/03/30 09:46:58;;;;;;;0.10;0.10;;;22.10;82.80;;;;;;5100924;28;20076;-74
2023/03/30 09:49:32;;;;;;;0.65;0.65;;;24.30;78.30;;;;;;5102415;28;20053;-74
2023/03/30 09:52:06;;;;;;;0.00;0.00;;;24.70;76.60;;;;;;5102564;28;20016;-73
2023/03/30 09:54:38;;;;;;;0.00;0.00;;;22.80;74.60;;;;;;5098769;28;20027;-74
2023/03/30 09:57:05;;;;;;;5.78;1.38;;;21.50;79.00;;;;;;5098319;28;20066;-73
2023/03/30 09:59:34;;;;;;;0.13;0.13;;;20.10;78.20;;;;;;5098287;28;20024;-73
2023/03/30 10:02:18;;;;;;;0.00;0.00;;;19.30;84.30;;;;;;5097472;28;20024;-73
2023/03/30 10:04:52;;;;;;;3.40;0.35;;;18.80;84.80;;;;;;5098513;28;20051;-73
2023/03/30 10:07:39;;;;;;;0.17;0.17;;;18.90;84.60;;;;;;5101068;28;20394;-73
2023/03/30 10:10:20;;;;;;;0.70;0.30;;;18.30;85.00;;;;;;5101866;28;20098;-75
2023/03/30 10:12:49;;;;;;;0.20;0.20;;;18.10;86.10;;;;;;5097058;28;20032;-73
2023/03/30 10:15:22;;;;;;;0.20;0.20;;;18.20;84.10;;;;;;5098300;28;20164;-73
2023/03/30 10:17:51;;;;;;;0.73;0.73;;;18.40;83.70;;;;;;5095360;28;20099;-74
2023/03/30 10:20:27;;;;;;;1.17;0.38;;;18.80;82.90;;;;;;5097145;28;20035;-73
2023/03/30 10:23:01;;;;;;;0.30;0.30;;;18.80;83.40;;;;;;5097426;28;20086;-73
2023/03/30 10:25:30;;;;;;;0.30;0.30;;;18.30;80.60;;;;;;5102111;28;20105;-73
2023/03/30 10:28:01;;;;;;;0.10;0.10;;;18.30;81.10;;;;;;5103052;28;20032;-73
2023/03/30 10:30:28;;;;;;;0.20;0.20;;;18.60;81.40;;;;;;5100944;28;20031;-73
2023/03/30 10:32:55;;;;;;;;;;;18.50;81.40;;;;;;5103202;28;20047;-73
2023/03/30 10:35:25;;;;;;;0.22;0.22;;;18.70;77.20;;;;;;5099954;28;19919;-74
2023/03/30 10:37:55;;;;;;;0.57;0.57;;;18.90;77.80;;;;;;5102624;28;20471;-73
2023/03/30 10:40:38;;;;;;;1.40;0.68;;;18.60;78.70;;;;;;5091039;28;20020;-73
2023/03/30 10:43:11;;;;;;;0.25;0.25;;;18.60;79.50;;;;;;5098934;28;20035;-74
2023/03/30 10:45:43;;;;;;;0.32;0.32;;;18.90;78.80;;;;;;5097928;28;20032;-73
2023/03/30 10:48:30;;;;;;;0.00;0.00;;;19.00;78.00;;;;;;5097937;28;20024;-74
2023/03/30 10:51:25;;;;;;;0.22;0.22;;;19.20;77.40;;;;;;5096377;28;20039;-73
2023/03/30 10:54:06;;;;;;;6.05;0.93;;;19.40;78.40;;;;;;5102286;28;20533;-73
2023/03/30 10:56:53;;;;;;;2.85;1.65;;;18.80;76.90;;;;;;5096154;28;20023;-74
2023/03/30 10:59:33;;;;;;;0.10;0.10;;;18.40;79.60;;;;;;5095928;28;20567;-74
2023/03/30 11:02:23;;;;;;;0.47;0.47;;;18.40;80.20;;;;;;5099771;28;20098;-75
2023/03/30 11:05:12;;;;;;;0.30;0.30;;;18.80;80.80;;;;;;5096005;28;20035;-73
2023/03/30 11:07:58;;;;;;;0.08;0.08;;;18.50;79.40;;;;;;5074070;28;20100;-75
2023/03/30 11:10:30;;;;;;;0.20;0.20;;;18.70;79.00;;;;;;5099660;28;20093;-73
2023/03/30 11:13:24;;;;;;;0.00;0.00;;;18.80;80.40;;;;;;5095390;28;20028;-74
2023/03/30 11:16:00;;;;;;;1.95;0.63;;;18.90;76.30;;;;;;5078877;28;20039;-73
2023/03/30 11:18:52;;;;;;;0.50;0.50;;;19.10;80.30;;;;;;5088249;28;20029;-73
2023/03/30 11:21:30;;;;;;;7.35;1.33;;;18.80;78.30;;;;;;5090565;28;20062;-73
2023/03/30 11:24:26;;;;;;;0.15;0.15;;;18.90;82.20;;;;;;5083361;28;20495;-74
2023/03/30 11:27:08;;;;;;;0.68;0.68;;;18.80;78.00;;;;;;5069036;28;20046;-75
2023/03/30 11:29:45;;;;;;;0.08;0.08;;;19.30;77.10;;;;;;5101493;28;20031;-74
2023/03/30 11:32:34;;;;;;;0.20;0.20;;;19.40;75.20;;;;;;5100643;28;20487;-74
2023/03/30 11:35:24;;;;;;;0.57;0.57;;;19.30;74.30;;;;;;5102210;28;20035;-73
2023/03/30 11:38:10;;;;;;;0.20;0.20;;;19.70;74.00;;;;;;5102806;28;20028;-73
2023/03/30 11:41:07;;;;;;;0.10;0.10;;;19.80;75.60;;;;;;5101626;28;20487;-73
2023/03/30 11:43:33;;;;;;;0.20;0.20;;;19.30;76.10;;;;;;5069346;28;20112;-76
2023/03/30 11:46:18;;;;;;;2.13;1.60;;;18.90;76.80;;;;;;5103092;28;20027;-74
2023/03/30 11:48:56;;;;;;;2.30;1.00;;;18.80;75.20;;;;;;5105242;28;20027;-75
2023/03/30 11:51:42;;;;;;;0.43;0.43;;;19.10;77.00;;;;;;5095894;28;20028;-74
2023/03/30 11:54:08;;;;;;;1.35;0.63;;;19.10;76.00;;;;;;5093706;28;20035;-74
2023/03/30 11:57:06;;;;;;;0.10;0.10;;;19.30;76.50;;;;;;5100749;28;20031;-74
2023/03/30 11:59:52;;;;;;;0.15;0.15;;;19.30;76.50;;;;;;5060528;28;20062;-73
2023/03/30 12:02:32;;;;;;;0.10;0.10;;;20.30;78.00;;;;;;5093490;28;20031;-73
2023/03/30 12:05:04;;;;;;;1.23;0.50;;;20.00;73.70;;;;;;5097979;28;20127;-73
2023/03/30 12:07:54;;;;;;;0.63;0.63;;;19.60;76.10;;;;;;5104259;28;20024;-74
2023/03/30 12:10:31;;;;;;;1.38;0.57;;;19.10;77.70;;;;;;5093794;28;20040;-74
2023/03/30 12:12:56;;;;;;;;;;;19.20;74.30;;;;;;5106554;28;20023;-72
2023/03/30 12:15:28;;;;;;;0.60;0.30;;;19.30;74.70;;;;;;5095663;28;19908;-75
2023/03/30 12:18:03;;;;;;;0.00;0.00;;;19.60;74.90;;;;;;5106067;28;20035;-74
2023/03/30 12:20:45;;;;;;;1.23;0.57;;;19.70;75.80;;;;;;5087777;28;20777;-73
2023/03/30 12:23:18;;;;;;;0.20;0.20;;;19.20;72.80;;;;;;5100573;28;20028;-73
2023/03/30 12:26:23;;;;;;;0.10;0.10;;;18.80;71.60;;;;;;5103626;28;20081;-73
2023/03/30 12:29:03;;;;;;;0.10;0.10;;;19.10;74.20;;;;;;5103074;28;20023;-73
2023/03/30 12:31:47;;;;;;;2.67;1.48;;;18.90;73.10;;;;;;5105357;28;20031;-74
2023/03/30 12:34:12;;;;;;;0.90;0.30;;;19.20;74.30;;;;;;5093881;28;20056;-73
2023/03/30 12:36:40;;;;;;;0.00;0.00;;;19.20;75.70;;;;;;5102729;28;20023;-73
2023/03/30 12:39:24;;;;;;;0.00;0.00;;;19.10;73.50;;;;;;5103110;28;20031;-74
2023/03/30 12:42:04;;;;;;;0.20;0.20;;;19.50;73.00;;;;;;5101477;28;20740;-73
2023/03/30 12:44:57;;;;;;;2.28;0.85;;;19.00;73.70;;;;;;5102860;28;20100;-73
2023/03/30 12:47:35;;;;;;;0.45;0.45;;;18.60;77.30;;;;;;5077994;28;20421;-73
2023/03/30 12:50:24;;;;;;;0.60;0.40;;;18.20;76.50;;;;;;5101095;28;20055;-74
2023/03/30 12:53:01;;;;;;;0.38;0.38;;;18.10;76.30;;;;;;5100320;28;20036;-73
2023/03/30 12:55:43;;;;;;;0.15;0.15;;;17.70;78.00;;;;;;5104391;28;20540;-73
2023/03/30 12:58:29;;;;;;;0.77;0.77;;;17.70;78.80;;;;;;5098615;28;20024;-73
2023/03/30 13:01:04;;;;;;;1.45;0.98;;;17.90;77.20;;;;;;5098147;28;20477;-73
2023/03/30 13:03:41;;;;;;;1.02;0.70;;;18.10;75.90;;;;;;5097911;28;20061;-72
2023/03/30 13:06:22;;;;;;;1.52;1.42;;;18.20;76.40;;;;;;5098455;28;20096;-73
2023/03/30 13:08:53;;;;;;;0.77;0.77;;;18.20;77.30;;;;;;5075575;28;20810;-74
2023/03/30 13:11:21;;;;;;;1.17;0.28;;;18.20;76.10;;;;;;5096417;28;20042;-74
2023/03/30 13:14:25;;;;;;;0.25;0.25;;;18.00;77.80;;;;;;5104704;28;20092;-74
2023/03/30 13:16:53;;;;;;;0.20;0.20;;;18.30;77.80;;;;;;5103189;28;20035;-73